sensor_id;sensor_type;location;lat;lon;timestamp;temperature;humidity
71304;DHT22;59091;47.446;19.148;2022-12-07T00:00:39;4.49;77.90
71304;DHT22;59091;47.446;19.148;2022-12-07T00:03:04;4.52;77.85
71304;DHT22;59091;47.446;19.148;2022-12-07T00:05:29;4.50;77.64
71304;DHT22;59091;47.446;19.148;2022-12-07T00:07:55;4.48;77.69
71304;DHT22;59091;47.446;19.148;2022-12-07T00:10:20;4.52;77.71
71304;DHT22;59091;47.446;19.148;2022-12-07T00:12:46;4.53;77.42
71304;DHT22;59091;47.446;19.148;2022-12-07T00:15:11;4.46;77.25
71304;DHT22;59091;47.446;19.148;2022-12-07T00:17:37;4.33;77.25
71304;DHT22;59091;47.446;19.148;2022-12-07T00:20:02;4.28;77.67
71304;DHT22;59091;47.446;19.148;2022-12-07T00:22:28;4.26;77.43
71304;DHT22;59091;47.446;19.148;2022-12-07T00:24:53;4.21;77.12
71304;DHT22;59091;47.446;19.148;2022-12-07T00:27:18;4.15;77.34
71304;DHT22;59091;47.446;19.148;2022-12-07T00:29:44;4.15;77.38
71304;DHT22;59091;47.446;19.148;2022-12-07T00:32:09;4.15;76.98
71304;DHT22;59091;47.446;19.148;2022-12-07T00:34:34;4.08;77.08
71304;DHT22;59091;47.446;19.148;2022-12-07T00:37:00;4.04;77.27
71304;DHT22;59091;47.446;19.148;2022-12-07T00:39:25;3.98;77.25
71304;DHT22;59091;47.446;19.148;2022-12-07T00:41:50;3.94;77.27
71304;DHT22;59091;47.446;19.148;2022-12-07T00:44:16;3.88;77.17
71304;DHT22;59091;47.446;19.148;2022-12-07T00:46:41;3.88;76.99
71304;DHT22;59091;47.446;19.148;2022-12-07T00:49:06;3.82;77.12
71304;DHT22;59091;47.446;19.148;2022-12-07T00:51:32;3.82;77.10
71304;DHT22;59091;47.446;19.148;2022-12-07T00:53:57;3.77;77.05
71304;DHT22;59091;47.446;19.148;2022-12-07T00:56:25;3.74;76.89
71304;DHT22;59091;47.446;19.148;2022-12-07T00:58:56;3.70;76.81
71304;DHT22;59091;47.446;19.148;2022-12-07T01:01:21;3.70;76.83
71304;DHT22;59091;47.446;19.148;2022-12-07T01:03:47;3.64;76.72
71304;DHT22;59091;47.446;19.148;2022-12-07T01:06:17;3.60;76.66
71304;DHT22;59091;47.446;19.148;2022-12-07T01:08:43;3.60;76.83
71304;DHT22;59091;47.446;19.148;2022-12-07T01:11:11;3.56;76.99
71304;DHT22;59091;47.446;19.148;2022-12-07T01:13:37;3.53;77.02
71304;DHT22;59091;47.446;19.148;2022-12-07T01:16:05;3.49;76.95
71304;DHT22;59091;47.446;19.148;2022-12-07T01:18:34;3.46;77.55
71304;DHT22;59091;47.446;19.148;2022-12-07T01:21:11;3.43;77.83
71304;DHT22;59091;47.446;19.148;2022-12-07T01:23:38;3.39;77.94
71304;DHT22;59091;47.446;19.148;2022-12-07T01:26:06;3.37;78.08
71304;DHT22;59091;47.446;19.148;2022-12-07T01:28:33;3.40;77.99
71304;DHT22;59091;47.446;19.148;2022-12-07T01:33:31;3.31;77.67
71304;DHT22;59091;47.446;19.148;2022-12-07T01:36:02;3.29;77.52
71304;DHT22;59091;47.446;19.148;2022-12-07T01:38:28;3.30;77.55
71304;DHT22;59091;47.446;19.148;2022-12-07T01:40:55;3.30;77.39
71304;DHT22;59091;47.446;19.148;2022-12-07T01:43:22;3.26;77.50
71304;DHT22;59091;47.446;19.148;2022-12-07T01:45:49;3.26;77.45
71304;DHT22;59091;47.446;19.148;2022-12-07T01:48:17;3.22;77.82
71304;DHT22;59091;47.446;19.148;2022-12-07T01:50:45;3.23;77.97
71304;DHT22;59091;47.446;19.148;2022-12-07T01:53:12;3.19;78.05
71304;DHT22;59091;47.446;19.148;2022-12-07T01:55:40;3.18;78.07
71304;DHT22;59091;47.446;19.148;2022-12-07T01:58:07;3.20;78.06
71304;DHT22;59091;47.446;19.148;2022-12-07T02:00:33;3.19;78.20
71304;DHT22;59091;47.446;19.148;2022-12-07T02:03:13;3.16;78.00
71304;DHT22;59091;47.446;19.148;2022-12-07T02:05:41;3.26;78.34
71304;DHT22;59091;47.446;19.148;2022-12-07T02:08:07;3.24;78.61
71304;DHT22;59091;47.446;19.148;2022-12-07T02:10:33;3.29;78.74
71304;DHT22;59091;47.446;19.148;2022-12-07T02:13:05;3.30;78.60
71304;DHT22;59091;47.446;19.148;2022-12-07T02:18:30;3.37;78.66
71304;DHT22;59091;47.446;19.148;2022-12-07T02:23:42;3.29;79.53
71304;DHT22;59091;47.446;19.148;2022-12-07T02:31:40;3.53;79.72
71304;DHT22;59091;47.446;19.148;2022-12-07T02:34:32;3.53;79.59
71304;DHT22;59091;47.446;19.148;2022-12-07T02:37:03;3.59;79.91
71304;DHT22;59091;47.446;19.148;2022-12-07T02:39:57;3.59;79.70
71304;DHT22;59091;47.446;19.148;2022-12-07T02:42:30;3.63;79.78
71304;DHT22;59091;47.446;19.148;2022-12-07T02:44:58;3.73;79.52
71304;DHT22;59091;47.446;19.148;2022-12-07T02:47:25;3.75;79.54
71304;DHT22;59091;47.446;19.148;2022-12-07T02:49:51;3.81;79.42
71304;DHT22;59091;47.446;19.148;2022-12-07T02:52:17;3.87;79.30
71304;DHT22;59091;47.446;19.148;2022-12-07T02:54:42;3.84;79.42
71304;DHT22;59091;47.446;19.148;2022-12-07T02:57:21;3.84;79.17
71304;DHT22;59091;47.446;19.148;2022-12-07T03:00:03;3.85;79.19
71304;DHT22;59091;47.446;19.148;2022-12-07T03:02:55;3.88;79.26
71304;DHT22;59091;47.446;19.148;2022-12-07T03:08:33;3.88;79.39
71304;DHT22;59091;47.446;19.148;2022-12-07T03:11:08;3.87;79.49
71304;DHT22;59091;47.446;19.148;2022-12-07T03:13:48;3.88;79.45
71304;DHT22;59091;47.446;19.148;2022-12-07T03:16:22;3.87;79.58
71304;DHT22;59091;47.446;19.148;2022-12-07T03:19:11;3.85;79.44
71304;DHT22;59091;47.446;19.148;2022-12-07T03:21:40;3.95;79.51
71304;DHT22;59091;47.446;19.148;2022-12-07T03:24:14;3.90;79.36
71304;DHT22;59091;47.446;19.148;2022-12-07T03:26:41;3.80;79.76
71304;DHT22;59091;47.446;19.148;2022-12-07T03:29:14;3.91;79.61
71304;DHT22;59091;47.446;19.148;2022-12-07T03:31:46;3.91;79.45
71304;DHT22;59091;47.446;19.148;2022-12-07T03:34:17;4.01;79.50
71304;DHT22;59091;47.446;19.148;2022-12-07T03:39:30;3.99;79.16
71304;DHT22;59091;47.446;19.148;2022-12-07T03:41:58;4.04;79.38
71304;DHT22;59091;47.446;19.148;2022-12-07T03:44:24;4.09;79.35
71304;DHT22;59091;47.446;19.148;2022-12-07T03:47:03;4.08;79.43
71304;DHT22;59091;47.446;19.148;2022-12-07T03:49:41;4.08;79.30
71304;DHT22;59091;47.446;19.148;2022-12-07T03:52:28;4.06;79.17
71304;DHT22;59091;47.446;19.148;2022-12-07T03:55:00;4.13;79.26
71304;DHT22;59091;47.446;19.148;2022-12-07T03:57:28;4.12;79.24
71304;DHT22;59091;47.446;19.148;2022-12-07T03:59:55;4.09;79.35
71304;DHT22;59091;47.446;19.148;2022-12-07T04:02:22;4.13;79.23
71304;DHT22;59091;47.446;19.148;2022-12-07T04:04:48;4.16;79.24
71304;DHT22;59091;47.446;19.148;2022-12-07T04:07:14;4.18;79.29
71304;DHT22;59091;47.446;19.148;2022-12-07T04:09:39;4.16;79.22
71304;DHT22;59091;47.446;19.148;2022-12-07T04:12:05;4.25;79.22
71304;DHT22;59091;47.446;19.148;2022-12-07T04:14:30;4.25;79.26
71304;DHT22;59091;47.446;19.148;2022-12-07T04:16:57;4.31;79.26
71304;DHT22;59091;47.446;19.148;2022-12-07T04:19:25;4.29;79.33
71304;DHT22;59091;47.446;19.148;2022-12-07T04:21:51;4.32;79.34
71304;DHT22;59091;47.446;19.148;2022-12-07T04:24:17;4.29;79.49
71304;DHT22;59091;47.446;19.148;2022-12-07T04:26:44;4.31;79.47
71304;DHT22;59091;47.446;19.148;2022-12-07T04:29:10;4.33;79.52
71304;DHT22;59091;47.446;19.148;2022-12-07T04:31:36;4.36;79.75
71304;DHT22;59091;47.446;19.148;2022-12-07T04:34:02;4.35;79.82
71304;DHT22;59091;47.446;19.148;2022-12-07T04:36:28;4.39;79.73
71304;DHT22;59091;47.446;19.148;2022-12-07T04:38:54;4.43;79.84
71304;DHT22;59091;47.446;19.148;2022-12-07T04:41:20;4.45;79.79
71304;DHT22;59091;47.446;19.148;2022-12-07T04:43:55;4.46;79.84
71304;DHT22;59091;47.446;19.148;2022-12-07T04:46:22;4.48;79.84
71304;DHT22;59091;47.446;19.148;2022-12-07T04:48:49;4.52;79.88
71304;DHT22;59091;47.446;19.148;2022-12-07T04:51:18;4.45;79.89
71304;DHT22;59091;47.446;19.148;2022-12-07T04:53:44;4.50;80.00
71304;DHT22;59091;47.446;19.148;2022-12-07T04:56:09;4.48;80.03
71304;DHT22;59091;47.446;19.148;2022-12-07T04:58:35;4.54;79.98
71304;DHT22;59091;47.446;19.148;2022-12-07T05:01:00;4.56;80.04
71304;DHT22;59091;47.446;19.148;2022-12-07T05:03:25;4.57;80.01
71304;DHT22;59091;47.446;19.148;2022-12-07T05:05:51;4.57;79.99
71304;DHT22;59091;47.446;19.148;2022-12-07T05:08:16;4.63;79.92
71304;DHT22;59091;47.446;19.148;2022-12-07T05:10:41;4.66;79.82
71304;DHT22;59091;47.446;19.148;2022-12-07T05:13:07;4.66;79.81
71304;DHT22;59091;47.446;19.148;2022-12-07T05:15:32;4.69;79.82
71304;DHT22;59091;47.446;19.148;2022-12-07T05:17:57;4.73;79.72
71304;DHT22;59091;47.446;19.148;2022-12-07T05:20:23;4.74;79.68
71304;DHT22;59091;47.446;19.148;2022-12-07T05:22:48;4.72;79.60
71304;DHT22;59091;47.446;19.148;2022-12-07T05:25:14;4.77;79.61
71304;DHT22;59091;47.446;19.148;2022-12-07T05:27:39;4.74;79.71
71304;DHT22;59091;47.446;19.148;2022-12-07T05:30:05;4.80;79.66
71304;DHT22;59091;47.446;19.148;2022-12-07T05:32:30;4.80;79.74
71304;DHT22;59091;47.446;19.148;2022-12-07T05:34:56;4.81;79.73
71304;DHT22;59091;47.446;19.148;2022-12-07T05:37:21;4.79;79.72
71304;DHT22;59091;47.446;19.148;2022-12-07T05:39:47;4.79;79.79
71304;DHT22;59091;47.446;19.148;2022-12-07T05:42:12;5.01;87.10
71304;DHT22;59091;47.446;19.148;2022-12-07T05:44:42;5.25;87.07
71304;DHT22;59091;47.446;19.148;2022-12-07T05:47:09;5.15;82.97
71304;DHT22;59091;47.446;19.148;2022-12-07T05:49:34;5.11;81.06
71304;DHT22;59091;47.446;19.148;2022-12-07T05:52:00;5.01;79.87
71304;DHT22;59091;47.446;19.148;2022-12-07T05:54:25;4.93;79.66
71304;DHT22;59091;47.446;19.148;2022-12-07T05:56:51;4.94;79.70
71304;DHT22;59091;47.446;19.148;2022-12-07T05:59:16;4.88;79.75
71304;DHT22;59091;47.446;19.148;2022-12-07T06:01:56;4.83;79.69
71304;DHT22;59091;47.446;19.148;2022-12-07T06:04:23;4.84;79.81
71304;DHT22;59091;47.446;19.148;2022-12-07T06:06:49;4.80;79.96
71304;DHT22;59091;47.446;19.148;2022-12-07T06:09:16;4.63;80.36
71304;DHT22;59091;47.446;19.148;2022-12-07T06:11:41;4.73;80.32
71304;DHT22;59091;47.446;19.148;2022-12-07T06:14:25;4.52;80.61
71304;DHT22;59091;47.446;19.148;2022-12-07T06:16:51;4.56;80.59
71304;DHT22;59091;47.446;19.148;2022-12-07T06:19:17;4.59;80.71
71304;DHT22;59091;47.446;19.148;2022-12-07T06:21:42;4.66;82.51
71304;DHT22;59091;47.446;19.148;2022-12-07T06:24:10;4.66;81.12
71304;DHT22;59091;47.446;19.148;2022-12-07T06:26:36;4.64;80.59
71304;DHT22;59091;47.446;19.148;2022-12-07T06:29:02;4.66;80.42
71304;DHT22;59091;47.446;19.148;2022-12-07T06:31:27;4.64;80.34
71304;DHT22;59091;47.446;19.148;2022-12-07T06:34:04;4.84;83.39
71304;DHT22;59091;47.446;19.148;2022-12-07T06:36:30;4.83;81.24
71304;DHT22;59091;47.446;19.148;2022-12-07T06:38:56;5.13;85.20
71304;DHT22;59091;47.446;19.148;2022-12-07T06:41:21;5.11;82.17
71304;DHT22;59091;47.446;19.148;2022-12-07T06:43:47;5.25;83.56
71304;DHT22;59091;47.446;19.148;2022-12-07T06:46:13;5.24;83.19
71304;DHT22;59091;47.446;19.148;2022-12-07T06:48:39;5.30;81.58
71304;DHT22;59091;47.446;19.148;2022-12-07T06:51:05;5.23;79.65
71304;DHT22;59091;47.446;19.148;2022-12-07T06:53:30;5.07;79.26
71304;DHT22;59091;47.446;19.148;2022-12-07T06:55:55;4.98;79.27
71304;DHT22;59091;47.446;19.148;2022-12-07T06:58:21;5.00;79.29
71304;DHT22;59091;47.446;19.148;2022-12-07T07:00:48;4.95;79.30
71304;DHT22;59091;47.446;19.148;2022-12-07T07:03:14;4.94;79.42
71304;DHT22;59091;47.446;19.148;2022-12-07T07:05:39;4.97;79.42
71304;DHT22;59091;47.446;19.148;2022-12-07T07:08:05;5.00;79.49
71304;DHT22;59091;47.446;19.148;2022-12-07T07:10:30;5.03;79.50
71304;DHT22;59091;47.446;19.148;2022-12-07T07:12:56;5.03;80.44
71304;DHT22;59091;47.446;19.148;2022-12-07T07:15:21;5.17;81.86
71304;DHT22;59091;47.446;19.148;2022-12-07T07:17:46;5.51;84.51
71304;DHT22;59091;47.446;19.148;2022-12-07T07:20:12;5.46;81.27
71304;DHT22;59091;47.446;19.148;2022-12-07T07:22:37;5.41;79.40
71304;DHT22;59091;47.446;19.148;2022-12-07T07:25:03;5.31;79.07
71304;DHT22;59091;47.446;19.148;2022-12-07T07:27:28;5.34;79.02
71304;DHT22;59091;47.446;19.148;2022-12-07T07:29:54;5.36;78.96
71304;DHT22;59091;47.446;19.148;2022-12-07T07:32:19;5.38;78.91
71304;DHT22;59091;47.446;19.148;2022-12-07T07:34:46;5.44;78.96
71304;DHT22;59091;47.446;19.148;2022-12-07T07:37:12;5.45;80.61
71304;DHT22;59091;47.446;19.148;2022-12-07T07:39:38;5.54;79.49
71304;DHT22;59091;47.446;19.148;2022-12-07T07:42:03;5.51;79.20
71304;DHT22;59091;47.446;19.148;2022-12-07T07:44:29;5.34;79.57
71304;DHT22;59091;47.446;19.148;2022-12-07T07:46:54;5.51;83.27
71304;DHT22;59091;47.446;19.148;2022-12-07T07:49:20;5.46;80.71
71304;DHT22;59091;47.446;19.148;2022-12-07T07:51:45;5.51;80.30
71304;DHT22;59091;47.446;19.148;2022-12-07T07:54:11;5.46;80.09
71304;DHT22;59091;47.446;19.148;2022-12-07T07:56:36;5.46;80.12
71304;DHT22;59091;47.446;19.148;2022-12-07T07:59:02;5.55;80.19
71304;DHT22;59091;47.446;19.148;2022-12-07T08:01:27;5.60;80.67
71304;DHT22;59091;47.446;19.148;2022-12-07T08:03:52;5.67;80.10
71304;DHT22;59091;47.446;19.148;2022-12-07T08:06:18;5.73;79.81
71304;DHT22;59091;47.446;19.148;2022-12-07T08:08:43;5.73;79.78
71304;DHT22;59091;47.446;19.148;2022-12-07T08:11:09;5.69;79.92
71304;DHT22;59091;47.446;19.148;2022-12-07T08:13:35;5.58;80.26
71304;DHT22;59091;47.446;19.148;2022-12-07T08:16:06;5.63;80.31
71304;DHT22;59091;47.446;19.148;2022-12-07T08:18:38;5.75;80.27
71304;DHT22;59091;47.446;19.148;2022-12-07T08:21:05;5.87;80.12
71304;DHT22;59091;47.446;19.148;2022-12-07T08:23:31;5.99;79.91
71304;DHT22;59091;47.446;19.148;2022-12-07T08:26:05;6.00;79.61
71304;DHT22;59091;47.446;19.148;2022-12-07T08:28:31;6.09;79.57
71304;DHT22;59091;47.446;19.148;2022-12-07T08:31:04;6.17;79.31
71304;DHT22;59091;47.446;19.148;2022-12-07T08:33:30;6.34;79.31
71304;DHT22;59091;47.446;19.148;2022-12-07T08:36:00;6.37;78.96
71304;DHT22;59091;47.446;19.148;2022-12-07T08:38:26;6.47;78.98
71304;DHT22;59091;47.446;19.148;2022-12-07T08:40:55;6.37;79.29
71304;DHT22;59091;47.446;19.148;2022-12-07T08:43:21;6.37;79.44
71304;DHT22;59091;47.446;19.148;2022-12-07T08:45:52;6.41;79.74
71304;DHT22;59091;47.446;19.148;2022-12-07T08:48:18;6.48;81.27
71304;DHT22;59091;47.446;19.148;2022-12-07T08:50:47;6.34;80.31
71304;DHT22;59091;47.446;19.148;2022-12-07T08:53:13;6.26;80.43
71304;DHT22;59091;47.446;19.148;2022-12-07T08:55:39;6.65;85.36
71304;DHT22;59091;47.446;19.148;2022-12-07T08:58:04;6.74;81.66
71304;DHT22;59091;47.446;19.148;2022-12-07T09:00:30;6.87;83.92
71304;DHT22;59091;47.446;19.148;2022-12-07T09:02:55;6.85;80.32
71304;DHT22;59091;47.446;19.148;2022-12-07T09:05:21;7.08;80.28
71304;DHT22;59091;47.446;19.148;2022-12-07T09:07:50;7.18;78.92
71304;DHT22;59091;47.446;19.148;2022-12-07T09:10:17;7.26;78.35
71304;DHT22;59091;47.446;19.148;2022-12-07T09:12:42;7.19;78.41
71304;DHT22;59091;47.446;19.148;2022-12-07T09:15:08;7.19;78.25
71304;DHT22;59091;47.446;19.148;2022-12-07T09:17:34;7.10;78.48
71304;DHT22;59091;47.446;19.148;2022-12-07T09:19:59;7.15;78.35
71304;DHT22;59091;47.446;19.148;2022-12-07T09:22:29;7.05;78.56
71304;DHT22;59091;47.446;19.148;2022-12-07T09:24:55;7.24;78.53
71304;DHT22;59091;47.446;19.148;2022-12-07T09:27:20;7.29;78.61
71304;DHT22;59091;47.446;19.148;2022-12-07T09:29:45;7.33;79.14
71304;DHT22;59091;47.446;19.148;2022-12-07T09:32:11;7.30;78.02
71304;DHT22;59091;47.446;19.148;2022-12-07T09:34:36;7.29;78.11
71304;DHT22;59091;47.446;19.148;2022-12-07T09:37:02;7.40;77.70
71304;DHT22;59091;47.446;19.148;2022-12-07T09:39:28;7.59;78.91
71304;DHT22;59091;47.446;19.148;2022-12-07T09:41:54;7.47;76.99
71304;DHT22;59091;47.446;19.148;2022-12-07T09:44:28;7.54;76.71
71304;DHT22;59091;47.446;19.148;2022-12-07T09:46:54;7.69;76.60
71304;DHT22;59091;47.446;19.148;2022-12-07T09:49:23;7.70;76.46
71304;DHT22;59091;47.446;19.148;2022-12-07T09:54:36;7.80;76.02
71304;DHT22;59091;47.446;19.148;2022-12-07T09:57:03;7.81;78.67
71304;DHT22;59091;47.446;19.148;2022-12-07T09:59:28;7.98;77.22
71304;DHT22;59091;47.446;19.148;2022-12-07T10:01:55;7.91;75.74
71304;DHT22;59091;47.446;19.148;2022-12-07T10:04:25;8.02;75.34
71304;DHT22;59091;47.446;19.148;2022-12-07T10:06:51;8.05;75.64
71304;DHT22;59091;47.446;19.148;2022-12-07T10:09:19;8.01;74.72
71304;DHT22;59091;47.446;19.148;2022-12-07T10:12:07;8.11;77.56
71304;DHT22;59091;47.446;19.148;2022-12-07T10:14:36;8.06;74.68
71304;DHT22;59091;47.446;19.148;2022-12-07T10:17:02;8.13;74.62
71304;DHT22;59091;47.446;19.148;2022-12-07T10:19:31;8.16;74.51
71304;DHT22;59091;47.446;19.148;2022-12-07T10:22:13;8.18;74.33
71304;DHT22;59091;47.446;19.148;2022-12-07T10:24:40;8.21;74.52
71304;DHT22;59091;47.446;19.148;2022-12-07T10:27:22;8.33;74.09
71304;DHT22;59091;47.446;19.148;2022-12-07T10:29:51;8.24;74.50
71304;DHT22;59091;47.446;19.148;2022-12-07T10:34:42;8.05;75.17
71304;DHT22;59091;47.446;19.148;2022-12-07T10:44:45;8.54;76.26
71304;DHT22;59091;47.446;19.148;2022-12-07T10:47:28;8.62;75.99
71304;DHT22;59091;47.446;19.148;2022-12-07T10:55:33;8.56;74.03
71304;DHT22;59091;47.446;19.148;2022-12-07T11:01:12;8.62;73.83
71304;DHT22;59091;47.446;19.148;2022-12-07T11:06:33;8.70;73.44
71304;DHT22;59091;47.446;19.148;2022-12-07T11:33:44;9.81;74.24
71304;DHT22;59091;47.446;19.148;2022-12-07T11:36:31;10.05;76.99
71304;DHT22;59091;47.446;19.148;2022-12-07T11:39:04;9.69;65.59
71304;DHT22;59091;47.446;19.148;2022-12-07T11:41:35;9.63;64.71
71304;DHT22;59091;47.446;19.148;2022-12-07T11:47:09;9.34;63.92
71304;DHT22;59091;47.446;19.148;2022-12-07T11:52:45;9.18;62.89
71304;DHT22;59091;47.446;19.148;2022-12-07T11:55:29;9.20;63.29
71304;DHT22;59091;47.446;19.148;2022-12-07T11:58:04;9.11;64.22
71304;DHT22;59091;47.446;19.148;2022-12-07T12:00:35;9.20;64.39
71304;DHT22;59091;47.446;19.148;2022-12-07T12:03:08;9.28;64.88
71304;DHT22;59091;47.446;19.148;2022-12-07T12:05:34;9.11;64.63
71304;DHT22;59091;47.446;19.148;2022-12-07T12:08:14;9.08;65.09
71304;DHT22;59091;47.446;19.148;2022-12-07T12:10:54;8.94;63.31
71304;DHT22;59091;47.446;19.148;2022-12-07T12:13:56;8.80;63.02
71304;DHT22;59091;47.446;19.148;2022-12-07T12:19:26;8.94;63.19
71304;DHT22;59091;47.446;19.148;2022-12-07T12:22:08;8.99;63.56
71304;DHT22;59091;47.446;19.148;2022-12-07T12:24:37;9.00;63.81
71304;DHT22;59091;47.446;19.148;2022-12-07T12:27:26;8.85;64.36
71304;DHT22;59091;47.446;19.148;2022-12-07T12:29:59;9.23;70.10
71304;DHT22;59091;47.446;19.148;2022-12-07T12:32:38;9.11;63.37
71304;DHT22;59091;47.446;19.148;2022-12-07T12:35:40;8.96;63.81
71304;DHT22;59091;47.446;19.148;2022-12-07T12:38:28;9.05;63.81
71304;DHT22;59091;47.446;19.148;2022-12-07T12:40:55;8.93;64.14
71304;DHT22;59091;47.446;19.148;2022-12-07T12:46:36;8.69;62.47
71304;DHT22;59091;47.446;19.148;2022-12-07T12:54:30;8.85;76.39
71304;DHT22;59091;47.446;19.148;2022-12-07T12:57:26;8.88;65.42
71304;DHT22;59091;47.446;19.148;2022-12-07T13:02:29;8.94;64.05
71304;DHT22;59091;47.446;19.148;2022-12-07T13:04:58;8.81;63.26
71304;DHT22;59091;47.446;19.148;2022-12-07T13:10:21;8.50;63.52
71304;DHT22;59091;47.446;19.148;2022-12-07T13:26:17;8.69;63.11
71304;DHT22;59091;47.446;19.148;2022-12-07T13:31:25;8.81;63.08
71304;DHT22;59091;47.446;19.148;2022-12-07T13:33:54;8.93;63.25
71304;DHT22;59091;47.446;19.148;2022-12-07T13:36:29;8.84;62.77
71304;DHT22;59091;47.446;19.148;2022-12-07T13:39:20;8.84;64.96
71304;DHT22;59091;47.446;19.148;2022-12-07T13:41:52;8.69;66.44
71304;DHT22;59091;47.446;19.148;2022-12-07T13:44:19;8.77;63.79
71304;DHT22;59091;47.446;19.148;2022-12-07T13:47:11;8.87;72.65
71304;DHT22;59091;47.446;19.148;2022-12-07T13:49:46;8.53;61.71
71304;DHT22;59091;47.446;19.148;2022-12-07T13:52:28;8.38;61.83
71304;DHT22;59091;47.446;19.148;2022-12-07T13:55:15;8.25;62.06
71304;DHT22;59091;47.446;19.148;2022-12-07T13:57:44;8.12;63.03
71304;DHT22;59091;47.446;19.148;2022-12-07T14:00:19;8.03;64.08
71304;DHT22;59091;47.446;19.148;2022-12-07T14:02:59;8.06;63.48
71304;DHT22;59091;47.446;19.148;2022-12-07T14:05:27;8.16;63.65
71304;DHT22;59091;47.446;19.148;2022-12-07T14:08:01;8.22;65.91
71304;DHT22;59091;47.446;19.148;2022-12-07T14:10:36;8.46;64.71
71304;DHT22;59091;47.446;19.148;2022-12-07T14:13:03;8.46;62.63
71304;DHT22;59091;47.446;19.148;2022-12-07T14:15:50;8.52;62.73
71304;DHT22;59091;47.446;19.148;2022-12-07T14:18:36;8.45;62.41
71304;DHT22;59091;47.446;19.148;2022-12-07T14:21:21;8.26;62.59
71304;DHT22;59091;47.446;19.148;2022-12-07T14:26:34;8.28;63.28
71304;DHT22;59091;47.446;19.148;2022-12-07T14:31:51;7.94;63.74
71304;DHT22;59091;47.446;19.148;2022-12-07T14:34:19;8.01;64.21
71304;DHT22;59091;47.446;19.148;2022-12-07T14:36:45;7.92;64.08
71304;DHT22;59091;47.446;19.148;2022-12-07T14:39:10;7.99;64.34
71304;DHT22;59091;47.446;19.148;2022-12-07T14:41:36;8.01;64.30
71304;DHT22;59091;47.446;19.148;2022-12-07T14:44:21;7.91;64.68
71304;DHT22;59091;47.446;19.148;2022-12-07T14:46:48;7.91;64.66
71304;DHT22;59091;47.446;19.148;2022-12-07T14:49:14;7.94;65.05
71304;DHT22;59091;47.446;19.148;2022-12-07T14:51:40;7.94;65.01
71304;DHT22;59091;47.446;19.148;2022-12-07T14:54:18;7.85;65.00
71304;DHT22;59091;47.446;19.148;2022-12-07T14:56:45;7.80;65.25
71304;DHT22;59091;47.446;19.148;2022-12-07T14:59:11;7.78;65.31
71304;DHT22;59091;47.446;19.148;2022-12-07T15:01:37;7.74;65.32
71304;DHT22;59091;47.446;19.148;2022-12-07T15:04:03;7.74;65.52
71304;DHT22;59091;47.446;19.148;2022-12-07T15:06:28;7.71;65.73
71304;DHT22;59091;47.446;19.148;2022-12-07T15:08:53;7.71;70.06
71304;DHT22;59091;47.446;19.148;2022-12-07T15:11:20;7.75;66.80
71304;DHT22;59091;47.446;19.148;2022-12-07T15:13:45;7.70;66.25
71304;DHT22;59091;47.446;19.148;2022-12-07T15:16:29;7.61;66.54
71304;DHT22;59091;47.446;19.148;2022-12-07T15:18:55;7.63;66.88
71304;DHT22;59091;47.446;19.148;2022-12-07T15:21:20;7.57;66.81
71304;DHT22;59091;47.446;19.148;2022-12-07T15:23:46;7.53;67.25
71304;DHT22;59091;47.446;19.148;2022-12-07T15:26:12;7.47;67.32
71304;DHT22;59091;47.446;19.148;2022-12-07T15:28:39;7.39;67.26
71304;DHT22;59091;47.446;19.148;2022-12-07T15:31:04;7.34;67.62
71304;DHT22;59091;47.446;19.148;2022-12-07T15:33:35;7.26;67.69
71304;DHT22;59091;47.446;19.148;2022-12-07T15:36:00;7.20;68.19
71304;DHT22;59091;47.446;19.148;2022-12-07T15:38:26;7.09;68.57
71304;DHT22;59091;47.446;19.148;2022-12-07T15:40:53;7.15;71.18
71304;DHT22;59091;47.446;19.148;2022-12-07T15:43:19;7.05;68.72
71304;DHT22;59091;47.446;19.148;2022-12-07T15:46:02;6.93;68.83
71304;DHT22;59091;47.446;19.148;2022-12-07T15:48:28;6.96;72.35
71304;DHT22;59091;47.446;19.148;2022-12-07T15:50:53;6.87;69.69
71304;DHT22;59091;47.446;19.148;2022-12-07T15:53:18;6.75;69.26
71304;DHT22;59091;47.446;19.148;2022-12-07T15:55:44;6.68;69.27
71304;DHT22;59091;47.446;19.148;2022-12-07T15:58:09;6.72;74.88
71304;DHT22;59091;47.446;19.148;2022-12-07T16:00:35;6.63;70.59
71304;DHT22;59091;47.446;19.148;2022-12-07T16:03:00;6.57;69.79
71304;DHT22;59091;47.446;19.148;2022-12-07T16:05:25;6.49;69.79
71304;DHT22;59091;47.446;19.148;2022-12-07T16:07:51;6.40;70.04
71304;DHT22;59091;47.446;19.148;2022-12-07T16:10:16;6.38;70.17
71304;DHT22;59091;47.446;19.148;2022-12-07T16:12:42;6.38;73.53
71304;DHT22;59091;47.446;19.148;2022-12-07T16:15:08;6.28;71.38
71304;DHT22;59091;47.446;19.148;2022-12-07T16:17:33;6.36;73.13
71304;DHT22;59091;47.446;19.148;2022-12-07T16:19:59;6.40;73.30
71304;DHT22;59091;47.446;19.148;2022-12-07T16:22:24;6.33;70.95
71304;DHT22;59091;47.446;19.148;2022-12-07T16:24:49;6.23;70.63
71304;DHT22;59091;47.446;19.148;2022-12-07T16:27:15;6.18;70.61
71304;DHT22;59091;47.446;19.148;2022-12-07T16:29:40;6.14;70.76
71304;DHT22;59091;47.446;19.148;2022-12-07T16:32:05;6.07;70.56
71304;DHT22;59091;47.446;19.148;2022-12-07T16:34:31;6.05;73.19
71304;DHT22;59091;47.446;19.148;2022-12-07T16:36:57;6.02;70.95
71304;DHT22;59091;47.446;19.148;2022-12-07T16:39:22;6.00;70.56
71304;DHT22;59091;47.446;19.148;2022-12-07T16:41:47;5.93;70.56
71304;DHT22;59091;47.446;19.148;2022-12-07T16:44:13;5.95;71.53
71304;DHT22;59091;47.446;19.148;2022-12-07T16:46:38;5.83;70.65
71304;DHT22;59091;47.446;19.148;2022-12-07T16:49:04;5.73;70.54
71304;DHT22;59091;47.446;19.148;2022-12-07T16:51:30;5.69;70.62
71304;DHT22;59091;47.446;19.148;2022-12-07T16:53:55;5.58;70.88
71304;DHT22;59091;47.446;19.148;2022-12-07T16:56:21;5.56;70.97
71304;DHT22;59091;47.446;19.148;2022-12-07T16:58:47;5.51;71.10
71304;DHT22;59091;47.446;19.148;2022-12-07T17:01:16;5.41;70.94
71304;DHT22;59091;47.446;19.148;2022-12-07T17:03:43;5.38;71.30
71304;DHT22;59091;47.446;19.148;2022-12-07T17:06:20;5.32;71.22
71304;DHT22;59091;47.446;19.148;2022-12-07T17:08:46;5.31;71.60
71304;DHT22;59091;47.446;19.148;2022-12-07T17:11:16;5.27;71.49
71304;DHT22;59091;47.446;19.148;2022-12-07T17:13:42;5.24;71.62
71304;DHT22;59091;47.446;19.148;2022-12-07T17:16:26;5.20;71.76
71304;DHT22;59091;47.446;19.148;2022-12-07T17:18:52;5.11;71.81
71304;DHT22;59091;47.446;19.148;2022-12-07T17:21:21;5.07;72.04
71304;DHT22;59091;47.446;19.148;2022-12-07T17:23:46;5.07;72.10
71304;DHT22;59091;47.446;19.148;2022-12-07T17:26:23;4.97;72.20
71304;DHT22;59091;47.446;19.148;2022-12-07T17:28:49;4.95;72.48
71304;DHT22;59091;47.446;19.148;2022-12-07T17:31:16;4.91;72.49
71304;DHT22;59091;47.446;19.148;2022-12-07T17:33:44;4.87;72.23